Terminal Aerodrome Forecast
Issued by NWS

Current Version | Previous Version | Text Only | Print | Product List | Glossary On
Versions: 1 2 3 4 5 6 7 8 9 10 11 12 13 14 15 16 17 18 19
823
FTUS41 KPBZ 090523
TAFZZV
TAF
KZZV 090523Z 0906/1006 21005KT 5SM -SHSN SCT008 BKN025
      TEMPO 0906/0909 1 1/2SM -SHSN BKN008 OVC015
     FM091800 30008KT 5SM -SHSN BKN015
     FM100000 27006KT P6SM BKN025=

USA.gov is the U.S. government's official web portal to all federal, state and local government web resources and services.